createdAt,value
2023-04-09T00:00:03.022Z,9.18
2023-04-09T00:02:29.681Z,9.15
2023-04-09T00:04:56.328Z,9.14
2023-04-09T00:07:22.906Z,9.10
2023-04-09T00:09:49.488Z,9.09
2023-04-09T00:12:16.132Z,9.08
2023-04-09T00:14:42.764Z,9.06
2023-04-09T00:17:09.414Z,9.03
2023-04-09T00:19:36.643Z,9.03
2023-04-09T00:22:03.235Z,8.96
2023-04-09T00:24:29.872Z,9.02
2023-04-09T00:26:57.209Z,8.96
2023-04-09T00:29:23.878Z,8.95
2023-04-09T00:31:50.858Z,8.94
2023-04-09T00:34:17.609Z,8.99
2023-04-09T00:36:44.225Z,8.95
2023-04-09T00:39:11.438Z,8.88
2023-04-09T00:41:38.028Z,8.88
2023-04-09T00:44:04.766Z,8.87
2023-04-09T00:46:32.618Z,8.88
2023-04-09T00:48:59.898Z,8.88
2023-04-09T00:51:26.908Z,8.87
2023-04-09T00:53:54.509Z,8.85
2023-04-09T00:56:23.604Z,8.86
2023-04-09T00:58:51.152Z,8.85
2023-04-09T01:01:17.999Z,8.83
2023-04-09T01:03:45.125Z,8.85
2023-04-09T01:06:46.196Z,8.78
2023-04-09T01:09:22.221Z,8.79
2023-04-09T01:12:09.564Z,8.76
2023-04-09T01:14:54.223Z,8.73
2023-04-09T01:17:45.784Z,8.67
2023-04-09T01:20:22.618Z,8.67
2023-04-09T01:23:01.466Z,8.60
2023-04-09T01:25:34.214Z,8.60
2023-04-09T01:28:22.845Z,8.54
2023-04-09T01:30:53.090Z,8.55
2023-04-09T01:33:20.722Z,8.54
2023-04-09T01:35:49.961Z,8.54
2023-04-09T01:38:19.858Z,8.53
2023-04-09T01:40:47.193Z,8.52
2023-04-09T01:43:15.109Z,8.49
2023-04-09T01:45:43.987Z,8.46
2023-04-09T01:48:11.598Z,8.45
2023-04-09T01:50:38.383Z,8.45
2023-04-09T01:53:05.967Z,8.48
2023-04-09T01:55:32.578Z,8.46
2023-04-09T01:57:59.195Z,8.45
2023-04-09T02:00:34.817Z,8.40
2023-04-09T02:03:18.600Z,8.40
2023-04-09T02:06:15.977Z,8.36
2023-04-09T02:08:47.838Z,8.34
2023-04-09T02:11:16.336Z,8.31
2023-04-09T02:13:44.316Z,8.31
2023-04-09T02:16:13.998Z,8.28
2023-04-09T02:18:40.659Z,8.23
2023-04-09T02:21:07.391Z,8.21
2023-04-09T02:23:33.988Z,8.19
2023-04-09T02:26:01.609Z,8.17
2023-04-09T02:28:28.378Z,8.15
2023-04-09T02:30:55.375Z,8.14
2023-04-09T02:33:22.786Z,8.11
2023-04-09T02:35:49.403Z,8.12
2023-04-09T02:38:16.247Z,8.11
2023-04-09T02:40:43.539Z,8.03
2023-04-09T02:43:10.755Z,8.01
2023-04-09T02:45:37.696Z,7.97
2023-04-09T02:48:07.078Z,7.95
2023-04-09T02:50:33.776Z,7.98
2023-04-09T02:53:00.427Z,7.97
2023-04-09T02:55:27.239Z,7.95
2023-04-09T02:57:53.873Z,7.90
2023-04-09T03:00:20.538Z,7.92
2023-04-09T03:02:47.519Z,7.91
2023-04-09T03:05:14.299Z,7.90
2023-04-09T03:07:40.877Z,7.88
2023-04-09T03:10:08.000Z,7.86
2023-04-09T03:12:34.580Z,7.85
2023-04-09T03:15:01.201Z,7.84
2023-04-09T03:17:27.913Z,7.81
2023-04-09T03:19:54.553Z,7.78
2023-04-09T03:22:21.226Z,7.77
2023-04-09T03:24:47.834Z,7.77
2023-04-09T03:27:14.531Z,7.78
2023-04-09T03:29:41.137Z,7.75
2023-04-09T03:32:07.822Z,7.71
2023-04-09T03:34:34.433Z,7.70
2023-04-09T03:37:01.131Z,7.70
2023-04-09T03:39:30.992Z,7.69
2023-04-09T03:41:59.070Z,7.68
2023-04-09T03:44:25.709Z,7.65
2023-04-09T03:46:53.038Z,7.63
2023-04-09T03:49:19.831Z,7.61
2023-04-09T03:51:46.416Z,7.61
2023-04-09T03:54:13.977Z,7.59
2023-04-09T03:56:40.611Z,7.59
2023-04-09T03:59:07.275Z,7.57
2023-04-09T04:01:35.008Z,7.56
2023-04-09T04:04:02.072Z,7.57
2023-04-09T04:06:28.924Z,7.55
2023-04-09T04:08:55.796Z,7.53
2023-04-09T04:11:22.359Z,7.49
2023-04-09T04:13:48.988Z,7.49
2023-04-09T04:16:16.150Z,7.46
2023-04-09T04:18:42.805Z,7.46
2023-04-09T04:21:14.983Z,7.44
2023-04-09T04:23:41.886Z,7.41
2023-04-09T04:26:12.539Z,7.42
2023-04-09T04:28:39.987Z,7.41
2023-04-09T04:31:13.571Z,7.40
2023-04-09T04:33:41.595Z,7.40
2023-04-09T04:36:13.108Z,7.37
2023-04-09T04:38:41.736Z,7.36
2023-04-09T04:41:08.720Z,7.33
2023-04-09T04:43:35.556Z,7.31
2023-04-09T04:46:02.342Z,7.30
2023-04-09T04:48:29.651Z,7.29
2023-04-09T04:51:00.514Z,7.30
2023-04-09T04:53:27.589Z,7.28
2023-04-09T04:55:54.701Z,7.27
2023-04-09T04:58:21.283Z,7.24
2023-04-09T05:00:48.005Z,7.24
2023-04-09T05:03:15.550Z,7.24
2023-04-09T05:05:42.247Z,7.23
2023-04-09T05:08:09.050Z,7.24
2023-04-09T05:10:35.752Z,7.23
2023-04-09T05:13:02.552Z,7.24
2023-04-09T05:15:29.204Z,7.25
2023-04-09T05:17:56.053Z,7.24
2023-04-09T05:20:22.932Z,7.27
2023-04-09T05:22:49.769Z,7.27
2023-04-09T05:25:16.668Z,7.28
2023-04-09T05:27:43.752Z,7.29
2023-04-09T05:30:10.859Z,7.27
2023-04-09T05:32:37.976Z,7.29
2023-04-09T05:35:05.246Z,7.30
2023-04-09T05:37:31.872Z,7.33
2023-04-09T05:39:58.599Z,7.35
2023-04-09T05:42:25.186Z,7.40
2023-04-09T05:44:51.742Z,7.46
2023-04-09T05:47:18.331Z,7.52
2023-04-09T05:49:44.897Z,7.53
2023-04-09T05:52:11.520Z,7.60
2023-04-09T05:54:38.199Z,7.65
2023-04-09T05:57:04.866Z,7.72
2023-04-09T05:59:33.911Z,7.82
2023-04-09T06:02:00.540Z,7.86
2023-04-09T06:04:28.146Z,7.91
2023-04-09T06:06:55.977Z,7.96
2023-04-09T06:09:22.569Z,8.00
2023-04-09T06:11:49.147Z,8.07
2023-04-09T06:14:18.681Z,8.12
2023-04-09T06:16:45.260Z,8.16
2023-04-09T06:19:12.611Z,8.12
2023-04-09T06:21:40.848Z,8.18
2023-04-09T06:24:07.685Z,8.22
2023-04-09T06:26:34.580Z,8.23
2023-04-09T06:29:01.183Z,8.24
2023-04-09T06:31:27.841Z,8.25
2023-04-09T06:33:54.974Z,8.37
2023-04-09T06:36:22.124Z,8.43
2023-04-09T06:38:48.722Z,8.54
2023-04-09T06:41:15.594Z,8.65
2023-04-09T06:43:42.492Z,8.74
2023-04-09T06:46:09.440Z,8.82
2023-04-09T06:48:36.257Z,8.88
2023-04-09T06:51:03.143Z,8.99
2023-04-09T06:53:29.803Z,9.07
2023-04-09T06:55:57.227Z,9.07
2023-04-09T06:58:23.979Z,9.18
2023-04-09T07:00:50.616Z,9.25
2023-04-09T07:03:17.375Z,9.35
2023-04-09T07:05:44.138Z,9.44
2023-04-09T07:08:11.863Z,9.54
2023-04-09T07:10:38.851Z,9.61
2023-04-09T07:13:05.582Z,9.70
2023-04-09T07:15:32.370Z,9.80
2023-04-09T07:17:59.017Z,9.85
2023-04-09T07:20:25.642Z,9.95
2023-04-09T07:22:52.556Z,10.01
2023-04-09T07:25:19.226Z,10.10
2023-04-09T07:27:46.198Z,10.10
2023-04-09T07:30:12.885Z,10.19
2023-04-09T07:32:39.574Z,10.19
2023-04-09T07:35:08.164Z,10.26
2023-04-09T07:37:34.772Z,10.35
2023-04-09T07:40:04.134Z,10.38
2023-04-09T07:42:31.175Z,10.46
2023-04-09T07:44:57.808Z,10.40
2023-04-09T07:47:24.500Z,10.37
2023-04-09T07:49:51.497Z,10.46
2023-04-09T07:52:18.208Z,10.58
2023-04-09T07:54:44.818Z,10.70
2023-04-09T07:57:11.406Z,10.77
2023-04-09T07:59:38.140Z,10.83
2023-04-09T08:02:07.605Z,10.91
2023-04-09T08:04:34.547Z,10.99
2023-04-09T08:07:02.306Z,10.94
2023-04-09T08:09:28.889Z,11.07
2023-04-09T08:11:56.022Z,11.04
2023-04-09T08:14:22.628Z,10.97
2023-04-09T08:16:50.437Z,11.00
2023-04-09T08:19:17.756Z,11.05
2023-04-09T08:21:44.689Z,11.14
2023-04-09T08:24:12.061Z,11.25
2023-04-09T08:26:39.982Z,11.35
2023-04-09T08:29:07.904Z,11.26
2023-04-09T08:31:34.880Z,11.29
2023-04-09T08:34:01.594Z,11.41
2023-04-09T08:36:29.038Z,11.47
2023-04-09T08:38:56.725Z,11.48
2023-04-09T08:41:24.918Z,11.52
2023-04-09T08:43:58.303Z,11.58
2023-04-09T08:46:28.860Z,11.57
2023-04-09T08:48:56.022Z,11.57
2023-04-09T08:51:24.549Z,11.67
2023-04-09T08:54:01.347Z,11.66
2023-04-09T08:56:31.273Z,11.65
2023-04-09T08:58:57.858Z,11.70
2023-04-09T09:01:29.421Z,11.77
2023-04-09T09:04:07.603Z,11.80
2023-04-09T09:06:38.935Z,11.94
2023-04-09T09:09:12.778Z,12.05
2023-04-09T09:11:46.459Z,12.06
2023-04-09T09:14:15.021Z,12.07
2023-04-09T09:16:45.131Z,12.22
2023-04-09T09:19:27.192Z,12.24
2023-04-09T09:22:06.271Z,12.34
2023-04-09T09:24:34.097Z,12.36
2023-04-09T09:27:02.964Z,12.48
2023-04-09T09:29:29.750Z,12.49
2023-04-09T09:31:56.759Z,12.55
2023-04-09T09:34:25.031Z,12.60
2023-04-09T09:36:51.680Z,12.63
2023-04-09T09:39:18.562Z,12.79
2023-04-09T09:41:47.564Z,12.70
2023-04-09T09:44:31.496Z,12.58
2023-04-09T09:46:59.008Z,12.76
2023-04-09T09:49:25.603Z,12.71
2023-04-09T09:51:53.557Z,12.70
2023-04-09T09:54:25.836Z,12.80
2023-04-09T09:56:55.952Z,12.79
2023-04-09T09:59:32.345Z,12.77
2023-04-09T10:02:06.212Z,12.76
2023-04-09T10:04:36.261Z,12.64
2023-04-09T10:07:05.905Z,12.69
2023-04-09T10:09:36.357Z,12.84
2023-04-09T10:12:07.133Z,12.88
2023-04-09T10:14:36.007Z,12.85
2023-04-09T10:17:04.404Z,12.89
2023-04-09T10:19:43.243Z,12.70
2023-04-09T10:22:16.324Z,12.80
2023-04-09T10:24:43.258Z,12.83
2023-04-09T10:27:13.650Z,12.89
2023-04-09T10:29:47.323Z,12.93
2023-04-09T10:32:23.908Z,12.96
2023-04-09T10:34:50.991Z,12.97
2023-04-09T10:37:23.092Z,12.94
2023-04-09T10:39:51.730Z,13.10
2023-04-09T10:42:49.358Z,13.12
2023-04-09T10:45:16.988Z,13.12
2023-04-09T10:47:44.399Z,13.20
2023-04-09T10:50:19.552Z,13.32
2023-04-09T10:52:46.935Z,13.18
2023-04-09T10:55:36.813Z,13.25
2023-04-09T10:58:10.456Z,13.19
2023-04-09T11:00:41.478Z,13.08
2023-04-09T11:03:21.999Z,13.08
2023-04-09T11:05:52.885Z,13.24
2023-04-09T11:08:19.931Z,13.33
2023-04-09T11:10:50.513Z,13.38
2023-04-09T11:13:20.914Z,13.46
2023-04-09T11:15:47.695Z,13.54
2023-04-09T11:18:15.704Z,13.63
2023-04-09T11:20:42.610Z,13.59
2023-04-09T11:23:10.906Z,13.60
2023-04-09T11:25:40.026Z,13.66
2023-04-09T11:28:08.657Z,13.81
2023-04-09T11:30:37.652Z,13.93
2023-04-09T11:33:04.446Z,13.77
2023-04-09T11:35:35.696Z,13.66
2023-04-09T11:38:08.953Z,13.79
2023-04-09T11:40:36.399Z,13.81
2023-04-09T11:43:03.347Z,13.93
2023-04-09T11:45:32.449Z,13.95
2023-04-09T11:47:59.361Z,13.89
2023-04-09T11:50:26.386Z,13.87
2023-04-09T11:52:52.957Z,13.91
2023-04-09T11:55:37.724Z,13.81
2023-04-09T11:58:11.922Z,13.78
2023-04-09T12:00:41.082Z,13.76
2023-04-09T12:03:08.401Z,13.83
2023-04-09T12:05:35.825Z,13.83
2023-04-09T12:08:08.797Z,13.88
2023-04-09T12:10:37.718Z,13.93
2023-04-09T12:13:07.054Z,13.99
2023-04-09T12:15:38.655Z,14.10
2023-04-09T12:18:09.085Z,14.14
2023-04-09T12:20:44.264Z,14.07
2023-04-09T12:23:12.315Z,14.09
2023-04-09T12:25:41.169Z,14.02
2023-04-09T12:28:09.831Z,13.93
2023-04-09T12:30:36.657Z,13.95
2023-04-09T12:33:04.964Z,13.97
2023-04-09T12:35:32.361Z,13.85
2023-04-09T12:38:01.927Z,13.89
2023-04-09T12:40:28.621Z,13.87
2023-04-09T12:42:57.653Z,13.93
2023-04-09T12:45:24.315Z,13.96
2023-04-09T12:47:51.497Z,13.95
2023-04-09T12:50:18.127Z,13.97
2023-04-09T12:52:45.740Z,13.97
2023-04-09T12:55:16.202Z,13.96
2023-04-09T12:57:44.980Z,13.95
2023-04-09T13:00:12.498Z,13.98
2023-04-09T13:02:39.586Z,13.92
2023-04-09T13:05:06.792Z,13.88
2023-04-09T13:07:33.569Z,13.92
2023-04-09T13:10:00.162Z,13.93
2023-04-09T13:12:27.317Z,13.92
2023-04-09T13:14:55.096Z,13.85
2023-04-09T13:17:22.340Z,13.88
2023-04-09T13:19:49.745Z,13.85
2023-04-09T13:22:16.366Z,13.81
2023-04-09T13:24:43.574Z,13.80
2023-04-09T13:27:11.583Z,13.81
2023-04-09T13:29:38.735Z,13.96
2023-04-09T13:32:08.508Z,13.96
2023-04-09T13:34:35.682Z,14.03
2023-04-09T13:37:05.537Z,14.04
2023-04-09T13:39:32.277Z,13.99
2023-04-09T13:42:00.040Z,13.91
2023-04-09T13:44:28.670Z,13.88
2023-04-09T13:46:55.579Z,13.83
2023-04-09T13:49:22.377Z,13.81
2023-04-09T13:51:49.399Z,13.75
2023-04-09T13:54:16.406Z,13.79
2023-04-09T13:56:44.576Z,13.79
2023-04-09T13:59:11.623Z,13.86
2023-04-09T14:01:38.352Z,13.90
2023-04-09T14:04:05.086Z,13.98
2023-04-09T14:06:31.803Z,13.97
2023-04-09T14:08:58.493Z,14.05
2023-04-09T14:11:25.172Z,14.00
2023-04-09T14:13:51.963Z,13.98
2023-04-09T14:16:19.396Z,14.00
2023-04-09T14:18:46.390Z,14.03
2023-04-09T14:21:15.644Z,14.04
2023-04-09T14:23:42.258Z,14.07
2023-04-09T14:26:09.048Z,14.16
2023-04-09T14:28:36.120Z,14.21
2023-04-09T14:31:02.707Z,14.26
2023-04-09T14:33:31.234Z,14.27
2023-04-09T14:35:59.034Z,14.33
2023-04-09T14:38:26.007Z,14.35
2023-04-09T14:40:52.875Z,14.27
2023-04-09T14:43:19.534Z,14.26
2023-04-09T14:45:46.527Z,14.35
2023-04-09T14:48:13.134Z,14.41
2023-04-09T14:50:39.989Z,14.48
2023-04-09T14:53:07.614Z,14.53
2023-04-09T14:55:34.715Z,14.48
2023-04-09T14:58:04.405Z,14.55
2023-04-09T15:00:32.089Z,14.53
2023-04-09T15:02:59.187Z,14.43
2023-04-09T15:05:26.708Z,14.49
2023-04-09T15:07:54.773Z,14.50
2023-04-09T15:10:21.496Z,14.45
2023-04-09T15:12:48.076Z,14.41
2023-04-09T15:15:14.807Z,14.43
2023-04-09T15:17:41.708Z,14.39
2023-04-09T15:20:09.201Z,14.31
2023-04-09T15:22:36.014Z,14.25
2023-04-09T15:25:02.650Z,14.23
2023-04-09T15:27:31.512Z,14.25
2023-04-09T15:29:58.280Z,14.26
2023-04-09T15:32:24.906Z,14.28
2023-04-09T15:34:51.599Z,14.24
2023-04-09T15:37:18.245Z,14.23
2023-04-09T15:39:44.896Z,14.22
2023-04-09T15:42:13.459Z,14.22
2023-04-09T15:44:41.593Z,14.22
2023-04-09T15:47:08.664Z,14.28
2023-04-09T15:49:37.006Z,14.16
2023-04-09T15:52:04.187Z,14.13
2023-04-09T15:54:31.080Z,14.15
2023-04-09T15:56:57.962Z,14.15
2023-04-09T15:59:24.604Z,14.16
2023-04-09T16:01:51.344Z,14.15
2023-04-09T16:04:18.005Z,14.17
2023-04-09T16:06:44.645Z,14.21
2023-04-09T16:09:11.541Z,14.19
2023-04-09T16:11:38.126Z,14.24
2023-04-09T16:14:04.782Z,14.24
2023-04-09T16:16:31.497Z,14.22
2023-04-09T16:18:58.180Z,14.19
2023-04-09T16:21:24.731Z,14.24
2023-04-09T16:23:52.524Z,14.24
2023-04-09T16:26:19.167Z,14.18
2023-04-09T16:28:45.858Z,14.16
2023-04-09T16:31:12.553Z,14.13
2023-04-09T16:33:39.220Z,14.10
2023-04-09T16:36:06.421Z,14.08
2023-04-09T16:38:33.148Z,14.10
2023-04-09T16:40:59.901Z,14.09
2023-04-09T16:43:26.765Z,14.01
2023-04-09T16:45:53.656Z,14.02
2023-04-09T16:48:22.815Z,14.03
2023-04-09T16:50:49.401Z,14.00
2023-04-09T16:53:16.170Z,13.97
2023-04-09T16:55:44.587Z,13.97
2023-04-09T16:58:11.351Z,13.95
2023-04-09T17:00:40.112Z,13.93
2023-04-09T17:03:07.115Z,13.89
2023-04-09T17:05:33.924Z,13.86
2023-04-09T17:08:01.276Z,13.87
2023-04-09T17:10:28.267Z,13.87
2023-04-09T17:12:54.931Z,13.82
2023-04-09T17:15:22.776Z,13.79
2023-04-09T17:17:51.440Z,13.80
2023-04-09T17:20:18.174Z,13.76
2023-04-09T17:22:44.953Z,13.73
2023-04-09T17:25:11.578Z,13.70
2023-04-09T17:27:38.185Z,13.66
2023-04-09T17:30:05.457Z,13.64
2023-04-09T17:32:32.110Z,13.59
2023-04-09T17:34:59.752Z,13.55
2023-04-09T17:37:28.926Z,13.52
2023-04-09T17:39:55.637Z,13.50
2023-04-09T17:42:23.503Z,13.51
2023-04-09T17:44:50.161Z,13.49
2023-04-09T17:47:17.217Z,13.48
2023-04-09T17:49:44.369Z,13.49
2023-04-09T17:52:11.019Z,13.44
2023-04-09T17:54:38.858Z,13.39
2023-04-09T17:57:07.367Z,13.37
2023-04-09T17:59:34.834Z,13.33
2023-04-09T18:02:02.368Z,13.32
2023-04-09T18:04:29.380Z,13.34
2023-04-09T18:06:56.449Z,13.29
2023-04-09T18:09:23.026Z,13.23
2023-04-09T18:11:53.562Z,13.22
2023-04-09T18:14:20.426Z,13.20
2023-04-09T18:16:47.445Z,13.14
2023-04-09T18:19:14.130Z,13.13
2023-04-09T18:21:40.806Z,13.08
2023-04-09T18:24:08.088Z,13.04
2023-04-09T18:26:34.726Z,13.00
2023-04-09T18:29:01.934Z,12.98
2023-04-09T18:31:28.795Z,12.92
2023-04-09T18:33:55.839Z,12.91
2023-04-09T18:36:22.461Z,12.87
2023-04-09T18:38:49.161Z,12.84
2023-04-09T18:41:26.144Z,12.78
2023-04-09T18:43:53.268Z,12.78
2023-04-09T18:46:19.981Z,12.73
2023-04-09T18:48:49.241Z,12.70
2023-04-09T18:51:16.878Z,12.67
2023-04-09T18:53:44.215Z,12.65
2023-04-09T18:56:11.610Z,12.63
2023-04-09T18:58:38.957Z,12.60
2023-04-09T19:01:12.309Z,12.57
2023-04-09T19:03:40.477Z,12.55
2023-04-09T19:06:18.453Z,12.53
2023-04-09T19:08:46.312Z,12.49
2023-04-09T19:11:13.619Z,12.47
2023-04-09T19:13:40.693Z,12.44
2023-04-09T19:16:09.505Z,12.40
2023-04-09T19:18:37.401Z,12.36
2023-04-09T19:21:05.594Z,12.36
2023-04-09T19:23:34.375Z,12.31
2023-04-09T19:26:02.042Z,12.28
2023-04-09T19:28:29.130Z,12.24
2023-04-09T19:31:00.062Z,12.22
2023-04-09T19:33:27.984Z,12.18
2023-04-09T19:35:55.461Z,12.17
2023-04-09T19:38:24.646Z,12.17
2023-04-09T19:40:51.593Z,12.14
2023-04-09T19:43:18.207Z,12.09
2023-04-09T19:45:45.039Z,12.09
2023-04-09T19:48:12.456Z,12.04
2023-04-09T19:50:41.266Z,12.03
2023-04-09T19:53:07.926Z,12.00
2023-04-09T19:55:34.977Z,11.97
2023-04-09T19:58:02.634Z,11.96
2023-04-09T20:00:29.484Z,11.92
2023-04-09T20:02:57.321Z,11.90
2023-04-09T20:05:24.196Z,11.89
2023-04-09T20:07:52.907Z,11.87
2023-04-09T20:10:19.964Z,11.84
2023-04-09T20:12:50.508Z,11.80
2023-04-09T20:15:20.540Z,11.78
2023-04-09T20:17:48.371Z,11.72
2023-04-09T20:20:18.053Z,11.73
2023-04-09T20:22:47.592Z,11.69
2023-04-09T20:25:14.466Z,11.68
2023-04-09T20:27:41.276Z,11.70
2023-04-09T20:30:08.521Z,11.67
2023-04-09T20:32:36.923Z,11.65
2023-04-09T20:35:04.513Z,11.64
2023-04-09T20:37:31.403Z,11.66
2023-04-09T20:39:59.636Z,11.63
2023-04-09T20:42:26.603Z,11.60
2023-04-09T20:44:53.430Z,11.59
2023-04-09T20:47:22.149Z,11.59
2023-04-09T20:49:51.075Z,11.54
2023-04-09T20:52:17.987Z,11.49
2023-04-09T20:54:45.516Z,11.44
2023-04-09T20:57:13.790Z,11.42
2023-04-09T20:59:40.760Z,11.39
2023-04-09T21:02:08.964Z,11.34
2023-04-09T21:04:35.659Z,11.35
2023-04-09T21:07:02.668Z,11.34
2023-04-09T21:09:29.739Z,11.34
2023-04-09T21:11:56.397Z,11.34
2023-04-09T21:14:23.161Z,11.31
2023-04-09T21:16:49.911Z,11.28
2023-04-09T21:19:18.996Z,11.27
2023-04-09T21:21:46.318Z,11.23
2023-04-09T21:24:13.520Z,11.21
2023-04-09T21:26:50.966Z,11.17
2023-04-09T21:29:20.972Z,11.18
2023-04-09T21:31:48.633Z,11.18
2023-04-09T21:34:15.790Z,11.15
2023-04-09T21:36:42.443Z,11.14
2023-04-09T21:39:09.604Z,11.10
2023-04-09T21:41:36.749Z,11.10
2023-04-09T21:44:08.316Z,11.06
2023-04-09T21:46:37.149Z,11.05
2023-04-09T21:49:04.442Z,11.02
2023-04-09T21:51:32.345Z,11.01
2023-04-09T21:54:04.192Z,11.00
2023-04-09T21:56:32.023Z,10.95
2023-04-09T21:58:58.726Z,10.93
2023-04-09T22:01:29.332Z,10.92
2023-04-09T22:03:57.911Z,10.86
2023-04-09T22:06:25.165Z,10.85
2023-04-09T22:08:56.013Z,10.86
2023-04-09T22:11:28.389Z,10.84
2023-04-09T22:13:56.107Z,10.85
2023-04-09T22:16:26.053Z,10.86
2023-04-09T22:18:54.499Z,10.85
2023-04-09T22:21:21.664Z,10.88
2023-04-09T22:23:48.423Z,10.85
2023-04-09T22:26:15.103Z,10.83
2023-04-09T22:28:41.710Z,10.81
2023-04-09T22:31:08.409Z,10.79
2023-04-09T22:33:35.084Z,10.72
2023-04-09T22:36:01.945Z,10.70
2023-04-09T22:38:28.678Z,10.68
2023-04-09T22:40:55.907Z,10.67
2023-04-09T22:43:22.889Z,10.69
2023-04-09T22:45:51.735Z,10.68
2023-04-09T22:48:19.439Z,10.65
2023-04-09T22:50:47.134Z,10.64
2023-04-09T22:53:20.933Z,10.64
2023-04-09T22:55:51.156Z,10.61
2023-04-09T22:58:18.389Z,10.59
2023-04-09T23:00:45.399Z,10.60
2023-04-09T23:03:12.142Z,10.60
2023-04-09T23:05:39.975Z,10.56
2023-04-09T23:08:06.704Z,10.55
2023-04-09T23:10:34.236Z,10.56
2023-04-09T23:13:00.979Z,10.54
2023-04-09T23:15:29.135Z,10.53
2023-04-09T23:17:56.238Z,10.53
2023-04-09T23:20:23.226Z,10.54
2023-04-09T23:22:50.068Z,10.54
2023-04-09T23:25:16.980Z,10.52
2023-04-09T23:27:44.155Z,10.52
2023-04-09T23:30:11.382Z,10.50
2023-04-09T23:32:38.182Z,10.48
2023-04-09T23:35:05.158Z,10.48
2023-04-09T23:37:32.183Z,10.45
2023-04-09T23:39:58.807Z,10.43
2023-04-09T23:42:26.858Z,10.45
2023-04-09T23:44:53.431Z,10.46
2023-04-09T23:47:22.666Z,10.46
2023-04-09T23:49:49.297Z,10.47
2023-04-09T23:52:16.172Z,10.46
2023-04-09T23:54:49.256Z,10.42
2023-04-09T23:57:16.542Z,10.40
2023-04-09T23:59:43.151Z,10.40
